Hang Nadim, Indonesia

1:29 AM WIT on September 02, 2014 (GMT +0700)
HANG NADIM | Change Station
CLOSE
Current Station
Airport
Location: HANG NADIM,
Elevation: 125 ft
Nearby Weather Stations

Elev 125 ft 1.12 °N, 104.12 °E | Updated 29 minutes ago

Overcast
Overcast
79 °F
Feels Like 79 °F
N
4
Wind Variable Wind from SE

Today
High -- | Low -- °F
--% Chance of Precip.
Yesterday
High -- | Low -- °F
Precip. -- in
5:59 AM 6:07 PM
Waxing Crescent, 43% visible
Pressure 29.83 in
Visibility 6.2 miles
Clouds Overcast 22000 ft
Dew Point 77 °F
Humidity 94%
Rainfall 0.00 in
Snow Depth Not available.
UV 0 out of 12
Pollen Not available.
Air Quality Not available.
Flu Activity Not available.
METAR WIDD 011800Z AUTO 13003KT 9999NDV OVC220 26/25 Q1010

More Conditions Fewer Conditions

Pressure 29.83 in
Visibility 6.2 miles
Clouds Overcast 22000 ft
Dew Point 77 °F
Humidity 94%
Rainfall 0.00 in
Snow Depth Not available.
UV 0 out of 12
Pollen Not available.
Air Quality Not available.
Flu Activity Not available.
METAR WIDD 011800Z AUTO 13003KT 9999NDV OVC220 26/25 Q1010

More Conditions Fewer Conditions

10-Day Weather Forecast

Almanac

Astronomy

Sep. 02, 2014 Rise Set
Actual Time 5:59 AM WIT 6:07 PM WIT
Civil Twilight 5:38 AM WIT 6:28 PM WIT
Nautical Twilight 5:14 AM WIT 6:52 PM WIT
Astronomical Twilight 4:50 AM WIT 7:16 PM WIT
Moon 11:41 AM WIT (9/2) No Moon Set
Length of Visible Light 12h 49m
Length of Day
12h 07m
Tomorrow will be 0m 3s shorter.
Waxing Crescent, 43% of the Moon is Illuminated
Sep 1
Waxing Crescent
Sep 2
First Quarter
Sep 8
Full
Sep 15
Last Quarter
Sep 24
New

Yesterday's Extremes

Country Highs Country Lows

Community

WunderPhotos

Upload Photos

1,749,348 photos uploaded!

Nearby

Snow Depth

Not available.

Earthquake Activity

City Distance Mag. Time & Date
No recent earthquake activity has been reported nearby.
Minimum magnitude displayed is 2.5.

Coastal Water Temperatures

Place Temperature
No Stations Reporting

Nearby Weather Stations